VEGT/GAU METAR and TAF weather

Enter ICAO airport designator
Station Type Date Time Source
VEGT METAR 2019/04/20 18:00 UTC NOAA

VEGT 201800Z 04005KT 3000 BR SCT018 FEW025CB BKN100 23/20 Q1007 NOSIG


Station Type Date Time Source
VEGT Decoded METAR 2019/04/20 18:00 UTC NOAA

Gauhati, India (VEGT) 26-06N 091-35E 54M
Apr 20, 2019 - 02:00 PM EDT / 2019.04.20 1800 UTC
Wind: from the NE (040 degrees) at 6 MPH (5 KT):0
Visibility: 1 mile(s):0
Sky conditions: mostly cloudy
Weather: mist; Cumulonimbus clouds observed
Temperature: 73 F (23 C)
Dew Point: 68 F (20 C)
Relative Humidity: 83%
Pressure (altimeter): 29.74 in. Hg (1007 hPa)
ob: VEGT 201800Z 04005KT 3000 BR SCT018 FEW025CB BKN100 23/20 Q1007 NOSIG
cycle: 18

Station Type Date Time Source
VEGT TAF 2016/03/24 00:45 UTC NOAA

TAF VEGT 242300Z 2500/2606 00000KT 2000 BR FEW020
BECMG 2503/2506 05008KT 4000 HZ
BECMG 2506/2509 5000 HZ
BECMG 2512/2514 00000KT 4000 HZ FEW020 SCT100
BECMG 2515/2518 2500 HZ
BECMG 2603/2606 05008KT 4000 HZ FEW020=

Example: see airport list